Villa General Belgrano, Argentina
Current Conditions -  °F | °C
As of 6:00 PM on Wednesday 17 Dec 2014 (Local Time) from SACO Reporting Station
Scattered Clouds Scattered Clouds  
Wind Chill: 28°   Ceiling: Unl
Heat Index: 28°   Visibility: 6mi
Dew Point: 13°   Wind: 6mph
Humidity: 39%   Direction: 90°E
Pressure: 29.97"   Gusts: NA
Location:  31.98°S, 64.57°W
Report Text: SACO 172100Z 09005KT 9999 SCT020 28/13 Q1015
Loading
Personal Weather Stations






























Interactive Weather Map New forecast layout! Learn more

10-Day Weather Forecast

Advertisements
Track Severe Weather on mobile